Huvudsida
METAR-TAF:

METAR-TAF

Flygplatser :

Hemavan Tärnaby Airport

Hemavan, Sverige

latitud: 65-48-22N, longitud: 015-04-58E, höjd: 458 m

Aktuellt väderrapport

Denna rapport gjordes för 38 minuter sedan, klockan 21:50 UTC
Vind 10 kt från syd/sydost
Temperatur -9°C
Fuktighet 79%
Tryck 1009 hPa
Sikt: 8000 m
kornsnö

METAR: ESUT 112150Z AUTO 16010KT 8000 SG BKN046/// OVC061/// M09/M12 Q1009

Tid: 23:28 (22:28 UTC)


TAF: saknas

Aktuella väderrapporter och prognoser från 4000 flygplatser (METAR- och TAF-rapporter).

De tillgängliga stationerna syns som gula och röda prickar på kartan.

För musen över prickarna för att se namnen på stationerna.

Klicka sedan för att få väderrapporter och prognoser.

För att ändra kartan: Klicka på de gröna knapparna med ett svart kors på för att zooma in; den gröna knappen med ett streck på för att zooma ut; eller på de gröna pilarna för angränsande kartor.


METAR-TAF: